createdAt,value
2018-03-21T00:00:27.111Z,0.99
2018-03-21T00:02:54.726Z,1.00
2018-03-21T00:05:22.321Z,1.05
2018-03-21T00:07:49.915Z,1.04
2018-03-21T00:10:17.559Z,1.11
2018-03-21T00:12:45.150Z,1.03
2018-03-21T00:15:12.745Z,1.08
2018-03-21T00:17:40.427Z,1.15
2018-03-21T00:20:08.003Z,1.15
2018-03-21T00:22:35.590Z,1.11
2018-03-21T00:25:03.212Z,1.16
2018-03-21T00:27:30.805Z,1.16
2018-03-21T00:29:58.392Z,1.18
2018-03-21T00:32:26.010Z,1.21
2018-03-21T00:34:53.605Z,1.27
2018-03-21T00:37:21.193Z,1.33
2018-03-21T00:39:48.835Z,1.35
2018-03-21T00:42:16.429Z,1.40
2018-03-21T00:44:44.008Z,1.36
2018-03-21T00:47:11.633Z,1.40
2018-03-21T00:49:39.229Z,1.37
2018-03-21T00:52:06.812Z,1.38
2018-03-21T00:54:34.460Z,1.35
2018-03-21T00:57:02.048Z,1.34
2018-03-21T00:59:29.647Z,1.34
2018-03-21T01:01:57.288Z,1.38
2018-03-21T01:04:24.898Z,1.40
2018-03-21T01:06:52.480Z,1.39
2018-03-21T01:09:20.104Z,1.36
2018-03-21T01:11:47.697Z,1.30
2018-03-21T01:14:15.288Z,1.25
2018-03-21T01:16:42.915Z,1.20
2018-03-21T01:19:10.504Z,1.19
2018-03-21T01:21:38.096Z,1.21
2018-03-21T01:24:05.758Z,1.28
2018-03-21T01:26:33.341Z,1.26
2018-03-21T01:29:00.936Z,1.24
2018-03-21T01:31:28.581Z,1.26
2018-03-21T01:33:56.185Z,1.30
2018-03-21T01:36:23.819Z,1.26
2018-03-21T01:38:51.484Z,1.23
2018-03-21T01:41:19.083Z,1.22
2018-03-21T01:43:46.668Z,1.24
2018-03-21T01:46:14.344Z,1.23
2018-03-21T01:48:41.954Z,1.23
2018-03-21T01:51:09.561Z,1.20
2018-03-21T01:53:37.192Z,1.18
2018-03-21T01:56:04.786Z,1.16
2018-03-21T01:58:32.386Z,1.15
2018-03-21T02:01:00.055Z,1.08
2018-03-21T02:03:27.662Z,1.13
2018-03-21T02:05:55.256Z,1.14
2018-03-21T02:08:22.886Z,1.19
2018-03-21T02:10:50.492Z,1.20
2018-03-21T02:13:18.092Z,1.12
2018-03-21T02:15:45.722Z,1.08
2018-03-21T02:18:13.313Z,1.07
2018-03-21T02:20:40.905Z,1.10
2018-03-21T02:23:08.531Z,1.13
2018-03-21T02:25:36.109Z,1.10
2018-03-21T02:28:03.693Z,1.09
2018-03-21T02:30:31.318Z,1.10
2018-03-21T02:32:58.902Z,1.06
2018-03-21T02:35:26.508Z,1.06
2018-03-21T02:37:54.152Z,1.07
2018-03-21T02:40:21.740Z,1.07
2018-03-21T02:42:49.330Z,1.09
2018-03-21T02:45:17.076Z,1.05
2018-03-21T02:47:44.671Z,1.08
2018-03-21T02:50:12.283Z,1.07
2018-03-21T02:52:39.968Z,1.02
2018-03-21T02:55:07.553Z,1.01
2018-03-21T02:57:35.193Z,0.98
2018-03-21T03:00:02.854Z,0.97
2018-03-21T03:02:30.458Z,0.93
2018-03-21T03:04:58.062Z,0.91
2018-03-21T03:07:25.697Z,0.84
2018-03-21T03:09:53.336Z,0.84
2018-03-21T03:12:20.929Z,0.86
2018-03-21T03:14:48.544Z,0.81
2018-03-21T03:17:16.137Z,0.80
2018-03-21T03:19:43.724Z,0.82
2018-03-21T03:22:11.373Z,0.85
2018-03-21T03:24:38.974Z,0.91
2018-03-21T03:27:06.571Z,0.96
2018-03-21T03:29:34.208Z,0.98
2018-03-21T03:32:01.811Z,0.97
2018-03-21T03:34:29.415Z,1.01
2018-03-21T03:36:57.055Z,1.04
2018-03-21T03:39:24.647Z,1.11
2018-03-21T03:41:52.240Z,1.12
2018-03-21T03:44:19.866Z,1.19
2018-03-21T03:46:47.456Z,1.24
2018-03-21T03:49:15.038Z,1.24
2018-03-21T03:51:42.668Z,1.31
2018-03-21T03:54:10.255Z,1.31
2018-03-21T03:56:37.857Z,1.35
2018-03-21T03:59:05.521Z,1.39
2018-03-21T04:01:33.122Z,1.42
2018-03-21T04:04:00.729Z,1.44
2018-03-21T04:06:28.350Z,1.52
2018-03-21T04:08:55.943Z,1.54
2018-03-21T04:11:23.545Z,1.50
2018-03-21T04:13:51.189Z,1.41
2018-03-21T04:16:18.780Z,1.33
2018-03-21T04:18:46.368Z,1.31
2018-03-21T04:21:14.047Z,1.33
2018-03-21T04:23:41.636Z,1.28
2018-03-21T04:26:09.216Z,1.28
2018-03-21T04:28:36.870Z,1.28
2018-03-21T04:31:04.442Z,1.25
2018-03-21T04:33:32.042Z,1.21
2018-03-21T04:35:59.680Z,1.24
2018-03-21T04:38:27.303Z,1.15
2018-03-21T04:40:54.911Z,1.13
2018-03-21T04:43:22.544Z,1.21
2018-03-21T04:45:50.165Z,1.26
2018-03-21T04:48:17.795Z,1.32
2018-03-21T04:50:45.476Z,1.34
2018-03-21T04:53:13.063Z,1.46
2018-03-21T04:55:40.655Z,1.55
2018-03-21T04:58:08.401Z,1.66
2018-03-21T05:00:35.993Z,1.69
2018-03-21T05:03:03.572Z,1.75
2018-03-21T05:05:31.204Z,1.86
2018-03-21T05:07:58.793Z,1.97
2018-03-21T05:10:26.388Z,2.04
2018-03-21T05:12:54.013Z,2.16
2018-03-21T05:15:21.629Z,2.22
2018-03-21T05:17:49.203Z,2.19
2018-03-21T05:20:16.867Z,2.11
2018-03-21T05:22:44.453Z,2.19
2018-03-21T05:25:12.049Z,2.03
2018-03-21T05:27:39.676Z,2.13
2018-03-21T05:30:07.283Z,1.96
2018-03-21T05:32:34.871Z,2.10
2018-03-21T05:35:02.529Z,2.14
2018-03-21T05:37:30.126Z,2.27
2018-03-21T05:39:57.731Z,2.41
2018-03-21T05:42:25.385Z,2.58
2018-03-21T05:44:52.979Z,2.72
2018-03-21T05:47:20.722Z,2.82
2018-03-21T05:49:49.335Z,2.79
2018-03-21T05:52:17.139Z,2.85
2018-03-21T05:54:44.731Z,2.81
2018-03-21T05:57:12.363Z,2.69
2018-03-21T05:59:39.950Z,2.89
2018-03-21T06:02:07.535Z,2.98
2018-03-21T06:04:35.156Z,3.08
2018-03-21T06:07:02.745Z,3.10
2018-03-21T06:09:30.332Z,3.17
2018-03-21T06:11:57.951Z,3.21
2018-03-21T06:14:25.534Z,3.31
2018-03-21T06:16:53.111Z,3.26
2018-03-21T06:19:20.728Z,3.20
2018-03-21T06:21:48.339Z,3.19
2018-03-21T06:24:15.942Z,3.16
2018-03-21T06:26:43.591Z,3.05
2018-03-21T06:29:11.170Z,3.16
2018-03-21T06:31:38.765Z,3.20
2018-03-21T06:34:06.389Z,3.36
2018-03-21T06:36:34.080Z,3.54
2018-03-21T06:39:01.711Z,3.67
2018-03-21T06:41:29.349Z,3.86
2018-03-21T06:43:56.942Z,3.94
2018-03-21T06:46:24.540Z,3.97
2018-03-21T06:48:52.264Z,4.46
2018-03-21T06:51:19.935Z,4.33
2018-03-21T06:53:47.522Z,4.20
2018-03-21T06:56:15.111Z,4.20
2018-03-21T06:58:42.785Z,4.19
2018-03-21T07:01:10.383Z,4.15
2018-03-21T07:03:37.977Z,4.18
2018-03-21T07:06:05.593Z,4.21
2018-03-21T07:08:33.205Z,4.26
2018-03-21T07:11:00.795Z,4.33
2018-03-21T07:16:42.166Z,4.20
2018-03-21T07:19:09.798Z,4.12
2018-03-21T07:21:37.391Z,4.21
2018-03-21T07:24:04.997Z,4.19
2018-03-21T07:26:32.633Z,4.26
2018-03-21T07:29:00.243Z,4.34
2018-03-21T07:31:27.906Z,4.29
2018-03-21T07:33:55.531Z,4.36
2018-03-21T07:36:23.130Z,4.56
2018-03-21T07:38:50.705Z,4.70
2018-03-21T07:41:18.334Z,4.85
2018-03-21T07:43:45.954Z,5.09
2018-03-21T07:46:13.548Z,5.35
2018-03-21T07:48:41.247Z,5.52
2018-03-21T07:51:08.870Z,5.44
2018-03-21T07:53:36.491Z,5.46
2018-03-21T07:56:04.117Z,5.63
2018-03-21T07:58:31.709Z,5.85
2018-03-21T08:00:59.344Z,5.93
2018-03-21T08:03:26.970Z,5.96
2018-03-21T08:05:54.552Z,6.22
2018-03-21T08:08:22.164Z,6.57
2018-03-21T08:10:49.818Z,6.89
2018-03-21T08:13:17.405Z,7.33
2018-03-21T08:15:45.003Z,7.69
2018-03-21T08:18:12.681Z,8.11
2018-03-21T08:20:40.320Z,8.32
2018-03-21T08:23:08.034Z,8.74
2018-03-21T08:25:35.653Z,8.90
2018-03-21T08:28:03.286Z,9.00
2018-03-21T08:30:30.876Z,9.03
2018-03-21T08:32:58.506Z,9.32
2018-03-21T08:35:26.099Z,9.40
2018-03-21T08:37:53.707Z,10.05
2018-03-21T08:40:21.342Z,10.78
2018-03-21T08:42:49.192Z,11.06
2018-03-21T08:45:16.790Z,11.39
2018-03-21T08:47:44.420Z,12.23
2018-03-21T08:50:12.018Z,12.08
2018-03-21T08:52:39.697Z,12.32
2018-03-21T08:55:07.458Z,12.16
2018-03-21T08:57:34.955Z,12.01
2018-03-21T09:00:02.567Z,12.27
2018-03-21T09:02:30.211Z,12.40
2018-03-21T09:04:57.803Z,12.20
2018-03-21T09:07:25.424Z,12.63
2018-03-21T09:09:53.069Z,13.20
2018-03-21T09:12:20.671Z,14.68
2018-03-21T09:14:48.263Z,16.16
2018-03-21T09:17:15.896Z,16.81
2018-03-21T09:19:43.499Z,16.12
2018-03-21T09:22:11.101Z,15.97
2018-03-21T09:24:38.763Z,15.65
2018-03-21T09:27:06.368Z,14.33
2018-03-21T09:29:33.968Z,14.16
2018-03-21T09:32:01.677Z,14.05
2018-03-21T09:34:29.254Z,13.71
2018-03-21T09:36:56.859Z,13.91
2018-03-21T09:39:24.500Z,14.58
2018-03-21T09:41:52.104Z,15.42
2018-03-21T09:44:20.718Z,14.72
2018-03-21T09:46:48.350Z,14.76
2018-03-21T09:49:15.947Z,14.35
2018-03-21T09:51:43.557Z,13.82
2018-03-21T09:54:11.205Z,13.55
2018-03-21T09:56:38.808Z,13.23
2018-03-21T09:59:06.406Z,12.93
2018-03-21T10:01:34.039Z,12.73
2018-03-21T10:04:01.643Z,12.35
2018-03-21T10:06:29.257Z,12.29
2018-03-21T10:08:56.891Z,11.91
2018-03-21T10:11:24.488Z,11.42
2018-03-21T10:13:52.100Z,11.67
2018-03-21T10:16:19.747Z,11.05
2018-03-21T10:18:47.346Z,11.70
2018-03-21T10:21:14.991Z,11.98
2018-03-21T10:23:42.652Z,11.85
2018-03-21T10:26:10.249Z,11.51
2018-03-21T10:28:37.841Z,11.57
2018-03-21T10:31:05.499Z,11.24
2018-03-21T10:33:33.144Z,10.97
2018-03-21T10:36:00.734Z,10.77
2018-03-21T10:38:28.405Z,10.38
2018-03-21T10:40:56.001Z,10.17
2018-03-21T10:43:23.626Z,9.67
2018-03-21T10:45:51.270Z,9.51
2018-03-21T10:48:18.870Z,9.09
2018-03-21T10:50:46.469Z,9.04
2018-03-21T10:53:14.100Z,8.53
2018-03-21T10:55:41.688Z,8.72
2018-03-21T10:58:09.287Z,8.84
2018-03-21T11:00:36.957Z,8.81
2018-03-21T11:03:04.600Z,8.49
2018-03-21T11:05:32.188Z,8.53
2018-03-21T11:07:59.819Z,8.74
2018-03-21T11:10:27.418Z,8.74
2018-03-21T11:12:55.000Z,8.83
2018-03-21T11:15:22.622Z,8.96
2018-03-21T11:17:50.217Z,8.86
2018-03-21T11:20:17.806Z,8.60
2018-03-21T11:22:45.426Z,8.10
2018-03-21T11:25:13.075Z,8.20
2018-03-21T11:27:40.649Z,8.02
2018-03-21T11:30:08.299Z,7.98
2018-03-21T11:32:35.903Z,8.24
2018-03-21T11:35:03.502Z,8.52
2018-03-21T11:37:31.146Z,8.95
2018-03-21T11:39:58.738Z,9.21
2018-03-21T11:42:26.332Z,9.29
2018-03-21T11:44:53.977Z,9.31
2018-03-21T11:47:21.621Z,9.52
2018-03-21T11:49:49.252Z,9.40
2018-03-21T11:52:16.884Z,9.34
2018-03-21T11:54:46.471Z,9.30
2018-03-21T11:57:14.067Z,9.53
2018-03-21T11:59:41.679Z,9.45
2018-03-21T12:02:09.267Z,8.97
2018-03-21T12:04:36.860Z,8.96
2018-03-21T12:07:04.475Z,9.32
2018-03-21T12:09:32.070Z,9.11
2018-03-21T12:11:59.687Z,8.74
2018-03-21T12:14:27.311Z,8.60
2018-03-21T12:16:54.900Z,8.20
2018-03-21T12:19:22.629Z,8.09
2018-03-21T12:21:50.263Z,8.40
2018-03-21T12:24:17.849Z,8.23
2018-03-21T12:26:45.446Z,8.22
2018-03-21T12:29:13.078Z,8.62
2018-03-21T12:31:40.675Z,8.49
2018-03-21T12:34:08.275Z,8.66
2018-03-21T12:36:36.018Z,8.70
2018-03-21T12:39:03.730Z,8.73
2018-03-21T12:41:31.321Z,8.43
2018-03-21T12:43:58.948Z,8.25
2018-03-21T12:46:26.543Z,8.06
2018-03-21T12:48:54.124Z,7.87
2018-03-21T12:51:21.778Z,8.27
2018-03-21T12:53:49.370Z,8.38
2018-03-21T12:56:17.039Z,8.66
2018-03-21T12:58:44.608Z,8.63
2018-03-21T13:01:12.206Z,7.99
2018-03-21T13:03:40.140Z,7.65
2018-03-21T13:06:07.765Z,7.41
2018-03-21T13:08:35.362Z,7.14
2018-03-21T13:11:03.026Z,6.58
2018-03-21T13:13:30.625Z,6.43
2018-03-21T13:15:58.223Z,6.33
2018-03-21T13:18:25.812Z,6.30
2018-03-21T13:20:53.426Z,6.05
2018-03-21T13:23:21.011Z,5.78
2018-03-21T13:25:48.607Z,5.85
2018-03-21T13:28:16.224Z,5.78
2018-03-21T13:30:43.831Z,5.70
2018-03-21T13:33:11.415Z,5.54
2018-03-21T13:35:39.045Z,5.47
2018-03-21T13:38:06.627Z,5.45
2018-03-21T13:40:34.219Z,5.42
2018-03-21T13:43:01.846Z,5.43
2018-03-21T13:45:29.423Z,5.50
2018-03-21T13:47:57.055Z,5.72
2018-03-21T13:50:24.748Z,5.57
2018-03-21T13:52:52.328Z,5.58
2018-03-21T13:55:19.923Z,5.58
2018-03-21T13:57:47.599Z,5.67
2018-03-21T14:00:15.188Z,5.68
2018-03-21T14:02:42.786Z,5.44
2018-03-21T14:05:10.402Z,5.34
2018-03-21T14:07:37.990Z,5.38
2018-03-21T14:10:05.579Z,5.42
2018-03-21T14:12:33.193Z,5.34
2018-03-21T14:15:00.926Z,5.41
2018-03-21T14:17:28.503Z,5.13
2018-03-21T14:19:56.113Z,5.08
2018-03-21T14:22:23.680Z,5.21
2018-03-21T14:24:51.272Z,5.00
2018-03-21T14:27:18.894Z,4.95
2018-03-21T14:29:46.478Z,4.97
2018-03-21T14:32:14.063Z,4.87
2018-03-21T14:34:41.695Z,4.87
2018-03-21T14:37:09.298Z,4.77
2018-03-21T14:39:36.983Z,4.71
2018-03-21T14:42:04.621Z,4.64
2018-03-21T14:44:32.214Z,4.64
2018-03-21T14:46:59.798Z,4.58
2018-03-21T14:49:27.449Z,4.36
2018-03-21T14:51:55.047Z,4.28
2018-03-21T14:54:22.632Z,4.31
2018-03-21T14:56:50.262Z,4.22
2018-03-21T14:59:17.859Z,4.06
2018-03-21T15:01:45.486Z,3.99
2018-03-21T15:04:13.107Z,3.95
2018-03-21T15:06:40.724Z,3.95
2018-03-21T15:09:08.361Z,3.86
2018-03-21T15:11:35.980Z,3.86
2018-03-21T15:14:03.566Z,3.75
2018-03-21T15:16:31.146Z,3.54
2018-03-21T15:18:58.791Z,3.55
2018-03-21T15:21:26.407Z,3.58
2018-03-21T15:23:54.002Z,3.33
2018-03-21T15:26:21.631Z,3.43
2018-03-21T15:28:49.270Z,3.41
2018-03-21T15:31:16.870Z,3.41
2018-03-21T15:33:44.499Z,3.38
2018-03-21T15:36:12.131Z,3.37
2018-03-21T15:38:39.747Z,3.30
2018-03-21T15:41:07.368Z,3.11
2018-03-21T15:43:35.147Z,3.11
2018-03-21T15:46:02.734Z,3.16
2018-03-21T15:48:30.371Z,3.01
2018-03-21T15:50:57.962Z,3.03
2018-03-21T15:53:25.547Z,3.05
2018-03-21T15:55:53.199Z,3.02
2018-03-21T15:58:20.875Z,3.00
2018-03-21T16:00:48.454Z,2.97
2018-03-21T16:03:16.087Z,2.96
2018-03-21T16:05:43.780Z,2.99
2018-03-21T16:08:11.374Z,2.96
2018-03-21T16:10:39.026Z,3.00
2018-03-21T16:13:06.628Z,3.06
2018-03-21T16:15:34.230Z,3.09
2018-03-21T16:18:01.853Z,3.02
2018-03-21T16:20:29.442Z,3.02
2018-03-21T16:22:57.316Z,3.07
2018-03-21T16:25:24.966Z,3.06
2018-03-21T16:27:52.550Z,2.88
2018-03-21T16:30:20.137Z,2.94
2018-03-21T16:32:47.771Z,2.95
2018-03-21T16:35:15.351Z,3.00
2018-03-21T16:37:42.939Z,2.99
2018-03-21T16:40:10.617Z,2.92
2018-03-21T16:42:38.218Z,2.94
2018-03-21T16:45:05.870Z,2.97
2018-03-21T16:47:33.502Z,3.00
2018-03-21T16:50:01.101Z,2.97
2018-03-21T16:52:28.691Z,2.95
2018-03-21T16:54:56.330Z,2.97
2018-03-21T16:57:23.905Z,2.82
2018-03-21T16:59:51.499Z,2.69
2018-03-21T17:02:19.131Z,2.68
2018-03-21T17:04:46.713Z,2.76
2018-03-21T17:07:14.312Z,2.81
2018-03-21T17:09:41.942Z,2.78
2018-03-21T17:12:09.531Z,2.86
2018-03-21T17:14:37.146Z,2.83
2018-03-21T17:17:04.780Z,2.92
2018-03-21T17:19:32.352Z,2.95
2018-03-21T17:21:59.927Z,2.89
2018-03-21T17:24:27.570Z,2.90
2018-03-21T17:26:55.172Z,2.91
2018-03-21T17:29:22.762Z,2.99
2018-03-21T17:31:50.396Z,3.09
2018-03-21T17:34:17.998Z,3.05
2018-03-21T17:36:45.580Z,2.96
2018-03-21T17:39:13.199Z,3.02
2018-03-21T17:41:40.787Z,3.10
2018-03-21T17:44:08.369Z,3.10
2018-03-21T17:46:35.991Z,3.04
2018-03-21T17:49:03.558Z,3.08
2018-03-21T17:51:31.147Z,3.06
2018-03-21T17:53:58.764Z,2.94
2018-03-21T17:56:26.366Z,2.95
2018-03-21T17:58:53.958Z,2.97
2018-03-21T18:01:21.583Z,3.02
2018-03-21T18:03:49.278Z,2.74
2018-03-21T18:06:16.917Z,2.84
2018-03-21T18:08:44.547Z,2.84
2018-03-21T18:11:12.166Z,2.83
2018-03-21T18:13:39.748Z,2.82
2018-03-21T18:16:07.373Z,2.85
2018-03-21T18:18:34.969Z,2.90
2018-03-21T18:21:02.562Z,2.91
2018-03-21T18:23:30.211Z,2.95
2018-03-21T18:25:57.826Z,2.77
2018-03-21T18:28:25.409Z,2.78
2018-03-21T18:30:53.031Z,2.81
2018-03-21T18:33:20.625Z,2.87
2018-03-21T18:35:48.235Z,2.98
2018-03-21T18:38:16.474Z,2.99
2018-03-21T18:40:44.081Z,3.02
2018-03-21T18:43:11.688Z,2.96
2018-03-21T18:45:39.323Z,2.95
2018-03-21T18:48:06.905Z,3.03
2018-03-21T18:50:34.497Z,3.07
2018-03-21T18:53:02.143Z,3.06
2018-03-21T18:55:31.542Z,3.06
2018-03-21T18:57:59.150Z,3.07
2018-03-21T19:00:26.797Z,3.02
2018-03-21T19:02:54.391Z,3.08
2018-03-21T19:05:22.048Z,3.16
2018-03-21T19:07:49.776Z,3.16
2018-03-21T19:10:17.435Z,3.20
2018-03-21T19:12:45.035Z,3.21
2018-03-21T19:15:12.683Z,3.21
2018-03-21T19:17:40.284Z,3.14
2018-03-21T19:20:07.902Z,2.95
2018-03-21T19:22:35.526Z,3.02
2018-03-21T19:25:03.138Z,2.99
2018-03-21T19:27:30.750Z,2.93
2018-03-21T19:29:58.367Z,2.81
2018-03-21T19:32:25.949Z,2.83
2018-03-21T19:34:53.541Z,2.78
2018-03-21T19:37:21.252Z,2.75
2018-03-21T19:39:48.900Z,2.76
2018-03-21T19:42:16.504Z,2.67
2018-03-21T19:44:44.135Z,2.75
2018-03-21T19:47:11.722Z,2.79
2018-03-21T19:49:39.336Z,2.80
2018-03-21T19:52:07.021Z,2.84
2018-03-21T19:54:34.612Z,2.88
2018-03-21T19:57:02.207Z,2.84
2018-03-21T19:59:29.861Z,2.84
2018-03-21T20:01:57.468Z,2.84
2018-03-21T20:04:25.067Z,2.90
2018-03-21T20:06:52.701Z,2.92
2018-03-21T20:09:20.305Z,2.91
2018-03-21T20:11:47.905Z,2.94
2018-03-21T20:14:15.591Z,2.98
2018-03-21T20:16:43.211Z,3.01
2018-03-21T20:19:10.815Z,3.02
2018-03-21T20:21:38.456Z,3.03
2018-03-21T20:24:06.067Z,3.03
2018-03-21T20:26:33.665Z,3.02
2018-03-21T20:29:01.304Z,2.99
2018-03-21T20:31:28.904Z,2.93
2018-03-21T20:33:56.498Z,2.93
2018-03-21T20:36:24.185Z,2.95
2018-03-21T20:38:51.789Z,2.96
2018-03-21T20:41:19.386Z,3.02
2018-03-21T20:43:47.010Z,3.04
2018-03-21T20:46:14.608Z,3.08
2018-03-21T20:48:42.197Z,3.09
2018-03-21T20:51:09.826Z,3.08
2018-03-21T20:53:37.418Z,2.98
2018-03-21T20:56:05.023Z,2.98
2018-03-21T20:58:32.647Z,2.97
2018-03-21T21:01:00.242Z,2.93
2018-03-21T21:03:27.862Z,2.98
2018-03-21T21:05:55.559Z,3.01
2018-03-21T21:08:23.166Z,2.98
2018-03-21T21:10:50.752Z,3.06
2018-03-21T21:13:18.373Z,3.10
2018-03-21T21:15:45.967Z,3.13
2018-03-21T21:18:13.573Z,3.20
2018-03-21T21:20:41.198Z,3.20
2018-03-21T21:23:08.803Z,3.15
2018-03-21T21:25:36.506Z,3.19
2018-03-21T21:28:04.138Z,3.18
2018-03-21T21:30:31.730Z,3.18
2018-03-21T21:32:59.367Z,3.16
2018-03-21T21:35:27.004Z,3.17
2018-03-21T21:37:54.585Z,3.17
2018-03-21T21:40:22.180Z,3.17
2018-03-21T21:42:49.818Z,3.18
2018-03-21T21:45:17.438Z,3.14
2018-03-21T21:47:45.072Z,3.09
2018-03-21T21:50:12.701Z,2.98
2018-03-21T21:52:40.306Z,3.01
2018-03-21T21:55:07.903Z,3.00
2018-03-21T21:57:35.607Z,2.94
2018-03-21T22:00:03.208Z,2.90
2018-03-21T22:02:30.806Z,2.84
2018-03-21T22:04:58.438Z,2.81
2018-03-21T22:07:26.022Z,2.81
2018-03-21T22:09:53.609Z,2.79
2018-03-21T22:12:24.123Z,2.81
2018-03-21T22:14:51.707Z,2.80
2018-03-21T22:17:19.298Z,2.84
2018-03-21T22:19:46.938Z,2.82
2018-03-21T22:22:14.530Z,2.83
2018-03-21T22:24:42.130Z,2.84
2018-03-21T22:27:09.754Z,2.81
2018-03-21T22:29:37.341Z,2.78
2018-03-21T22:32:04.930Z,2.74
2018-03-21T22:34:32.567Z,2.75
2018-03-21T22:37:00.179Z,2.77
2018-03-21T22:39:27.784Z,2.82
2018-03-21T22:41:55.425Z,2.73
2018-03-21T22:44:23.022Z,2.77
2018-03-21T22:46:50.623Z,2.79
2018-03-21T22:49:18.256Z,2.84
2018-03-21T22:51:45.850Z,2.82
2018-03-21T22:54:13.450Z,2.88
2018-03-21T22:56:41.079Z,2.88
2018-03-21T22:59:08.684Z,2.90
2018-03-21T23:01:36.282Z,2.89
2018-03-21T23:04:03.922Z,2.80
2018-03-21T23:06:31.536Z,2.73
2018-03-21T23:08:59.128Z,2.65
2018-03-21T23:11:26.768Z,2.58
2018-03-21T23:13:54.364Z,2.52
2018-03-21T23:16:21.959Z,2.44
2018-03-21T23:18:49.571Z,2.41
2018-03-21T23:21:17.162Z,2.44
2018-03-21T23:23:44.747Z,2.44
2018-03-21T23:26:12.382Z,2.42
2018-03-21T23:28:39.976Z,2.47
2018-03-21T23:31:07.563Z,2.49
2018-03-21T23:33:35.223Z,2.39
2018-03-21T23:36:02.847Z,2.39
2018-03-21T23:38:30.447Z,2.31
2018-03-21T23:40:58.078Z,2.32
2018-03-21T23:43:25.687Z,2.27
2018-03-21T23:45:53.280Z,2.25
2018-03-21T23:48:20.921Z,2.24
2018-03-21T23:50:48.526Z,2.24
2018-03-21T23:53:16.116Z,2.24
2018-03-21T23:55:43.747Z,2.28
2018-03-21T23:58:11.346Z,2.31
